Latest Weather Observations for Miles

IDQ60801

Issued at 4:32 pm EST Saturday 25 February 2017 (issued every 30 minutes, with the page automatically refreshed every 10 minutes)

About weather observations | Map of weather stations | Latest weather observations for QLD | Other Formats
Station Details ID: 042112 Name: MILES CONSTANCE STREET Lat: -26.66 Lon: 150.18 Height: 304.8 m
Data from the previous 72 hours. | See also: Recent months at Miles
Date/Time
EST
Temp
°C
App
Temp
°C
Dew
Point
°C
Rel
Hum
%
Delta-T
°C
Wind Press
QNH
hPa
Press
MSL
hPa
Rain since
9am
mm
Dir  Spd
km/h
Gust
km/h
Spd
kts
Gust
kts
25/04:30pm 34.2 31.5 7.2 19 15.1 SE 11 20 6 11 1012.4 - 0.0
25/04:00pm 34.0 30.5 7.4 19 14.9 SSE 15 24 8 13 1012.6 - 0.0
25/03:30pm 33.9 31.1 8.4 20 14.5 SSE 13 20 7 11 1012.7 - 0.0
25/03:00pm 34.1 31.7 8.8 21 14.5 S 11 19 6 10 1013.1 1011.3 0.0
25/02:30pm 33.4 30.5 8.1 21 14.3 S 13 24 7 13 1013.5 - 0.0
25/02:00pm 33.0 30.8 9.3 23 13.6 S 11 20 6 11 1014.1 - 0.0
25/01:30pm 32.9 29.7 6.8 19 14.4 SSE 13 22 7 12 1014.5 - 0.0
25/01:00pm 32.2 30.2 10.1 25 12.8 SSE 11 19 6 10 1015.1 - 0.0
25/12:30pm 31.8 29.9 10.5 27 12.4 ENE 11 19 6 10 1015.6 - 0.0
25/12:00pm 31.2 30.1 12.0 30 11.4 SE 9 20 5 11 1016.1 1014.3 0.0
25/11:30am 30.2 29.5 13.3 35 10.2 ENE 9 15 5 8 1016.5 - 0.0
25/11:00am 29.6 29.4 14.8 40 9.1 E 9 15 5 8 1017.0 - 0.0
25/10:30am 27.8 27.3 14.9 45 7.9 NNE 11 20 6 11 1017.5 - 0.0
25/10:00am 27.8 27.6 15.7 47 7.5 ENE 11 19 6 10 1017.8 - 0.0
25/09:30am 26.9 27.0 16.5 53 6.5 NNE 11 17 6 9 1018.2 - 0.0
25/09:00am 25.2 24.8 16.1 57 5.6 NE 13 19 7 10 1018.2 1016.4 0.0
25/08:30am 24.7 24.3 16.3 59 5.2 NE 13 24 7 13 1018.5 - 0.0
25/08:00am 23.7 23.4 16.4 63 4.5 NE 13 20 7 11 1018.6 - 0.0
25/07:30am 22.5 22.7 16.7 69 3.6 N 11 19 6 10 1018.3 - 0.0
25/07:00am 21.4 21.5 16.5 73 3.0 N 11 17 6 9 1018.0 - 0.0
25/06:30am 20.3 20.1 15.8 75 2.7 N 11 15 6 8 1017.5 - 0.0
25/06:00am 19.9 20.0 15.4 75 2.7 NNE 9 15 5 8 1017.2 1015.4 0.0
25/05:30am 20.1 20.1 15.2 73 2.9 N 9 15 5 8 1016.8 - 0.0
25/05:00am 20.1 20.3 14.7 71 3.2 N 7 13 4 7 1016.5 - 0.0
25/04:30am 20.6 20.3 14.3 67 3.7 NNE 9 15 5 8 1016.1 - 0.0
25/04:00am 20.2 20.0 13.5 65 3.9 N 7 11 4 6 1016.1 - 0.0
25/03:30am 20.8 20.5 13.4 62 4.3 N 7 9 4 5 1015.9 - 0.0
25/03:00am 21.4 20.7 13.3 60 4.7 NNE 9 11 5 6 1015.5 1013.7 0.0
25/02:30am 21.2 20.7 12.7 58 4.9 N 7 11 4 6 1015.3 - 0.0
25/02:00am 22.4 22.0 12.9 55 5.5 N 7 11 4 6 1015.4 - 0.0
25/01:30am 23.4 22.3 12.1 49 6.5 NNE 9 15 5 8 1015.3 - 0.0
25/01:00am 22.4 21.7 12.1 52 5.9 NNE 7 11 4 6 1015.5 - 0.0
25/12:30am 20.9 20.2 11.5 55 5.3 N 6 9 3 5 1015.6 - 0.0
25/12:00am 21.1 20.3 11.1 52 5.6 N 6 9 3 5 1015.8 1014.0 0.0
 
Date/Time
EST
Temp
°C
App
Temp
°C
Dew
Point
°C
Rel
Hum
%
Delta-T
°C
Wind Press
QNH
hPa
Press
MSL
hPa
Rain since
9am
mm
Dir  Spd
km/h
Gust
km/h
Spd
kts
Gust
kts
24/11:30pm 21.3 21.1 13.0 59 4.8 N 6 7 3 4 1015.8 - 0.0
24/11:00pm 22.3 21.7 11.7 51 6.0 N 6 11 3 6 1015.9 - 0.0
24/10:30pm 22.1 21.4 11.5 51 6.0 N 6 9 3 5 1016.1 - 0.0
24/10:00pm 22.8 22.0 10.9 47 6.7 N 6 9 3 5 1016.2 - 0.0
24/09:30pm 23.6 23.9 11.0 45 7.1 CALM 0 0 0 0 1016.3 - 0.0
24/09:00pm 25.2 26.5 14.2 50 6.6 CALM 0 4 0 2 1016.3 1014.5 0.0
24/08:30pm 28.1 26.4 7.5 27 11.2 E 6 9 3 5 1016.2 - 0.0
24/08:00pm 28.4 26.8 8.6 29 11.0 ENE 7 11 4 6 1016.0 - 0.0
24/07:30pm 29.3 27.8 8.4 27 11.6 ENE 6 7 3 4 1015.9 - 0.0
24/07:00pm 30.6 28.3 7.3 23 12.8 E 9 15 5 8 1015.6 - 0.0
24/06:30pm 31.6 28.7 6.5 20 13.7 ENE 11 19 6 10 1015.4 - 0.0
24/06:00pm 32.7 29.1 5.1 17 14.8 ESE 13 22 7 12 1015.3 1013.5 0.0
24/05:30pm 33.4 29.3 4.5 16 15.4 ESE 15 26 8 14 1015.0 - 0.0
24/05:00pm 33.9 30.3 4.9 16 15.6 ESE 13 20 7 11 1014.9 - 0.0
24/04:30pm 34.7 31.5 5.2 16 16.0 E 11 19 6 10 1014.8 - 0.0
24/04:00pm 34.2 29.8 4.5 15 15.9 SSE 17 28 9 15 1014.9 - 0.0
24/03:30pm 34.8 29.8 3.7 14 16.5 SE 19 30 10 16 1015.1 - 0.0
24/03:00pm 35.0 31.9 7.2 18 15.6 ESE 13 26 7 14 1015.2 1013.4 0.0
24/02:30pm 34.8 32.8 10.0 22 14.5 S 11 20 6 11 1015.6 - 0.0
24/02:00pm 33.4 30.7 10.3 24 13.5 ESE 15 26 8 14 1016.1 - 0.0
24/01:30pm 32.8 28.9 9.5 23 13.4 ESE 20 24 11 13 1016.6 - 0.0
24/01:00pm 32.4 30.3 9.9 25 13.0 SSE 11 20 6 11 1017.0 - 0.0
24/12:30pm 32.3 29.5 8.6 23 13.4 SE 13 26 7 14 1017.5 - 0.0
24/12:00pm 31.0 27.8 8.6 24 12.6 SSE 15 24 8 13 1018.0 1016.2 0.0
24/11:30am 31.3 30.5 11.2 29 11.8 E 6 15 3 8 1018.4 - 0.0
24/11:00am 29.5 28.2 11.3 32 10.6 S 9 17 5 9 1018.9 - 0.0
24/10:30am 29.1 27.8 12.6 36 9.8 SE 11 17 6 9 1019.3 - 0.0
24/10:00am 28.5 28.0 12.6 37 9.4 E 7 15 4 8 1019.6 - 0.0
24/09:30am 26.8 26.2 13.6 44 7.9 E 9 19 5 10 1019.9 - 0.0
24/09:00am 26.4 25.6 14.1 46 7.4 ENE 11 17 6 9 1019.9 1018.1 0.0
24/08:30am 25.0 24.0 14.5 52 6.3 NNE 13 19 7 10 1020.0 - 0.0
24/08:00am 24.3 23.5 15.2 57 5.5 NNE 13 20 7 11 1019.9 - 0.0
24/07:30am 22.4 22.5 16.4 69 3.7 N 11 17 6 9 1019.7 - 0.0
24/07:00am 21.5 22.1 16.8 74 2.9 N 9 15 5 8 1019.6 - 0.0
24/06:30am 20.3 21.2 16.7 80 2.2 NNE 7 9 4 5 1019.4 - 0.0
24/06:00am 19.6 20.4 16.3 81 2.0 NE 7 9 4 5 1019.0 1017.2 0.0
24/05:30am 19.8 20.5 16.2 80 2.2 NNE 7 11 4 6 1018.7 - 0.0
24/05:00am 20.3 21.0 16.0 76 2.6 NNE 7 11 4 6 1018.5 - 0.0
24/04:30am 20.7 21.3 15.9 74 2.9 NE 7 11 4 6 1018.2 - 0.0
24/04:00am 21.2 21.7 15.6 70 3.4 NE 7 13 4 7 1017.9 - 0.0
24/03:30am 21.6 22.1 15.5 68 3.7 NE 7 11 4 6 1017.8 - 0.0
24/03:00am 22.2 21.7 15.0 63 4.3 NE 11 15 6 8 1017.9 1016.1 0.0
24/02:30am 22.4 22.1 14.5 61 4.7 NE 9 11 5 6 1017.9 - 0.0
24/02:00am 22.9 22.5 14.1 57 5.2 NE 9 15 5 8 1018.0 - 0.0
24/01:30am 23.4 22.9 13.7 54 5.7 NE 9 13 5 7 1018.1 - 0.0
24/01:00am 23.8 23.6 13.6 52 6.0 NNE 7 11 4 6 1018.1 - 0.0
24/12:30am 24.6 23.9 13.2 49 6.7 NNE 9 17 5 9 1018.2 - 0.0
24/12:00am 25.2 24.4 12.9 46 7.2 NNE 9 15 5 8 1018.4 1016.6 0.0
 
Date/Time
EST
Temp
°C
App
Temp
°C
Dew
Point
°C
Rel
Hum
%
Delta-T
°C
Wind Press
QNH
hPa
Press
MSL
hPa
Rain since
9am
mm
Dir  Spd
km/h
Gust
km/h
Spd
kts
Gust
kts
23/11:30pm 25.7 25.2 12.7 44 7.6 NNE 7 13 4 7 1018.4 - 0.0
23/11:00pm 26.6 25.6 12.2 40 8.4 NE 9 19 5 10 1018.3 - 0.0
23/10:30pm 27.1 25.9 11.5 37 9.0 ENE 9 15 5 8 1018.1 - 0.0
23/10:00pm 27.4 25.6 10.8 35 9.5 ENE 11 15 6 8 1018.1 - 0.0
23/09:30pm 27.9 26.0 10.6 34 9.9 ENE 11 20 6 11 1018.1 - 0.0
23/09:00pm 28.1 26.5 10.1 32 10.2 E 9 13 5 7 1018.0 1016.2 0.0
23/08:30pm 28.2 27.1 9.8 31 10.4 ENE 6 11 3 6 1017.8 - 0.0
23/08:00pm 28.7 26.9 9.3 29 10.9 E 9 13 5 7 1017.6 - 0.0
23/07:30pm 29.3 27.6 9.8 29 11.1 E 9 13 5 7 1017.4 - 0.0
23/07:00pm 29.9 28.6 9.9 29 11.4 E 7 11 4 6 1017.2 - 0.0
23/06:30pm 30.6 29.3 9.8 27 11.9 E 7 11 4 6 1016.8 - 0.0
23/06:00pm 31.3 29.8 9.1 25 12.6 E 7 11 4 6 1016.6 1014.8 0.0
23/05:30pm 32.3 29.4 6.5 20 14.1 ESE 11 20 6 11 1016.3 - 0.0
23/05:00pm 32.8 30.0 6.9 20 14.3 SE 11 19 6 10 1016.1 - 0.0
23/04:30pm 32.9 29.7 6.8 19 14.4 SE 13 20 7 11 1016.2 - 0.0
23/04:00pm 32.7 29.2 7.0 20 14.2 ESE 15 24 8 13 1016.3 - 0.0
23/03:30pm 32.9 29.8 7.1 20 14.3 SE 13 20 7 11 1016.3 - 0.0
23/03:00pm 32.6 29.9 9.1 23 13.4 ESE 13 24 7 13 1016.5 1014.7 0.0
23/02:30pm 32.5 30.6 9.2 23 13.3 SE 9 19 5 10 1016.9 - 0.0
23/02:00pm 31.9 29.8 9.8 25 12.7 ESE 11 20 6 11 1017.1 - 0.0
23/01:30pm 31.1 28.4 10.3 27 12.0 SSE 15 30 8 16 1017.7 - 0.0
23/01:00pm 31.3 29.4 10.4 27 12.1 SSE 11 22 6 12 1018.2 - 0.0
23/12:30pm 30.5 28.6 10.6 29 11.5 SE 11 19 6 10 1018.6 - 0.0
23/12:00pm 29.2 27.5 11.3 33 10.4 SSE 11 20 6 11 1018.9 1017.1 0.0
23/11:30am 29.3 27.4 11.7 33 10.3 SE 13 24 7 13 1019.2 - 0.0
23/11:00am 28.3 27.4 12.6 38 9.3 E 9 20 5 11 1019.6 - 0.0
23/10:30am 28.1 27.4 13.2 39 8.9 ESE 9 17 5 9 1020.1 - 0.0
23/10:00am 26.9 25.3 12.8 41 8.3 ENE 13 20 7 11 1020.6 - 0.0
23/09:30am 26.5 25.5 13.4 44 7.8 NNE 11 17 6 9 1020.9 - 0.0
23/09:00am 25.3 23.9 13.3 47 7.1 E 13 19 7 10 1021.0 1019.2 0.0
23/08:30am 24.5 23.2 13.7 51 6.4 ENE 13 20 7 11 1021.0 - 0.0
23/08:00am 23.4 22.8 14.5 57 5.3 ENE 11 20 6 11 1021.0 - 0.0
23/07:30am 22.7 22.3 15.2 62 4.5 ENE 11 17 6 9 1020.7 - 0.0
23/07:00am 21.3 22.0 15.7 70 3.4 ENE 6 9 3 5 1020.3 - 0.0
23/06:30am 19.9 21.0 15.6 76 2.6 ENE 4 7 2 4 1020.0 - 0.0
23/06:00am 19.9 20.9 15.4 75 2.7 ENE 4 7 2 4 1019.7 1017.9 0.0
23/05:30am 20.3 20.7 15.3 73 3.0 ENE 7 9 4 5 1019.4 - 0.0
23/05:00am 20.5 21.0 15.1 71 3.2 NE 6 9 3 5 1019.2 - 0.0
23/04:30am 20.7 21.3 15.2 71 3.3 ENE 6 9 3 5 1018.9 - 0.0
23/04:00am 21.1 21.4 15.1 68 3.6 ENE 7 13 4 7 1018.8 - 0.0
23/03:30am 21.5 21.4 15.0 66 3.9 ENE 9 13 5 7 1018.7 - 0.0
23/03:00am 21.7 21.6 15.0 65 4.0 NE 9 13 5 7 1018.6 1016.8 0.0
23/02:30am 22.0 21.5 14.8 63 4.3 NE 11 22 6 12 1018.6 - 0.0
23/02:00am 22.2 22.0 14.7 62 4.5 NE 9 15 5 8 1018.7 - 0.0
23/01:30am 22.6 21.5 14.2 59 5.0 NE 13 20 7 11 1018.8 - 0.0
23/01:00am 22.8 21.9 13.8 57 5.3 NE 11 17 6 9 1019.0 - 0.0
23/12:30am 23.3 21.5 13.4 53 5.8 NE 15 28 8 15 1019.1 - 0.0
23/12:00am 23.9 22.2 12.5 49 6.6 NE 13 20 7 11 1019.2 1017.4 0.0
 
Date/Time
EST
Temp
°C
App
Temp
°C
Dew
Point
°C
Rel
Hum
%
Delta-T
°C
Wind Press
QNH
hPa
Press
MSL
hPa
Rain since
9am
mm
Dir  Spd
km/h
Gust
km/h
Spd
kts
Gust
kts
22/11:30pm 24.4 22.7 12.5 47 6.9 ENE 13 20 7 11 1019.2 - 0.0
22/11:00pm 25.1 22.7 12.6 45 7.3 ENE 17 24 9 13 1019.2 - 0.0
22/10:30pm 25.4 24.1 13.6 48 7.0 ENE 13 22 7 12 1019.0 - 0.0
22/10:00pm 26.0 24.5 14.2 48 7.1 ENE 15 26 8 14 1018.7 - 0.0
22/09:30pm 26.5 26.1 14.0 46 7.5 ENE 9 17 5 9 1018.3 - 0.0
22/09:00pm 26.6 26.7 14.4 47 7.4 ENE 7 11 4 6 1018.1 1016.3 0.0
22/08:30pm 26.9 26.9 14.1 45 7.7 ENE 7 11 4 6 1017.9 - 0.0
22/08:00pm 27.3 27.2 13.8 43 8.1 ENE 7 11 4 6 1017.7 - 0.0
22/07:30pm 27.9 27.8 14.0 42 8.4 E 7 11 4 6 1017.4 - 0.0
22/07:00pm 28.4 27.8 13.6 40 8.9 E 9 13 5 7 1016.9 - 0.0
22/06:30pm 29.2 28.2 13.4 38 9.5 E 11 17 6 9 1016.7 - 0.0
22/06:00pm 29.9 28.0 13.1 35 10.1 E 15 26 8 14 1016.4 1014.6 0.0
22/05:30pm 30.7 29.7 13.3 34 10.5 E 11 19 6 10 1016.3 - 0.0
22/05:00pm 31.0 29.5 13.1 33 10.8 E 13 22 7 12 1016.1 - 0.0

Other Formats:

Comma delimited format used in spreadsheet applications
http://www.bom.gov.au/fwo/IDQ60801/IDQ60801.95529.axf

JavaScript Object Notation format (JSON) in row-major order
http://www.bom.gov.au/fwo/IDQ60801/IDQ60801.95529.json